Time;durP1;ratioP1;P1;durP2;ratioP2;P2;SDS_P1;SDS_P2;PMS_P1;PMS_P2;Temp;Humidity;BMP_temperature;BMP_pressure;BME280_temperature;BME280_humidity;BME280_pressure;Samples;Min_cycle;Max_cycle;Signal;HPM_P1;HPM_P2
2022/07/09 00:00:45;;;;;;;;;5.00;3.75;;;;;22.92;45.79;102707.94;2414751;28;46279;-80
2022/07/09 00:01:55;;;;;;;;;4.75;3.00;;;;;22.92;46.02;102698.09;2413505;28;44585;-80
2022/07/09 00:03:06;;;;;;;;;4.00;4.00;;;;;22.92;46.01;102698.09;2421285;28;45346;-80
2022/07/09 00:04:16;;;;;;;;;5.50;3.50;;;;;22.92;46.45;102702.59;2418621;28;44765;-79
2022/07/09 00:05:27;;;;;;;;;4.00;4.00;;;;;22.93;46.11;102705.19;2416389;28;45420;-80
2022/07/09 00:06:37;;;;;;;;;3.25;3.25;;;;;22.91;45.86;102707.09;2422864;28;45202;-79
2022/07/09 00:07:47;;;;;;;;;7.50;6.25;;;;;22.91;46.26;102703.56;2412376;28;47317;-79
2022/07/09 00:08:58;;;;;;;;;5.25;4.25;;;;;22.90;46.58;102701.81;2405611;28;45166;-79
2022/07/09 00:10:10;;;;;;;;;6.00;5.00;;;;;22.90;46.61;102704.47;2415059;28;45337;-80
2022/07/09 00:11:20;;;;;;;;;5.50;4.50;;;;;22.89;46.33;102703.63;2421959;28;45168;-81
2022/07/09 00:12:31;;;;;;;;;5.50;4.25;;;;;22.86;46.72;102709.16;2416245;28;47022;-79
2022/07/09 00:13:41;;;;;;;;;6.50;4.00;;;;;22.86;46.24;102700.25;2411918;28;44714;-80
2022/07/09 00:14:51;;;;;;;;;5.00;3.75;;;;;22.85;46.07;102698.50;2414794;28;46664;-80
2022/07/09 00:16:02;;;;;;;;;5.00;5.00;;;;;22.83;46.14;102709.31;2413277;28;45155;-79
2022/07/09 00:17:12;;;;;;;;;5.50;4.00;;;;;22.84;46.50;102704.84;2422123;28;45472;-79
2022/07/09 00:18:23;;;;;;;;;5.00;4.75;;;;;22.80;46.46;102699.63;2422744;28;45276;-79
2022/07/09 00:19:33;;;;;;;;;4.50;3.75;;;;;22.81;46.59;102708.56;2422609;28;46192;-79
2022/07/09 00:20:43;;;;;;;;;5.00;5.00;;;;;22.78;46.88;102709.56;2412442;28;45476;-79
2022/07/09 00:21:54;;;;;;;;;4.00;4.00;;;;;22.78;46.87;102703.34;2415094;28;45308;-80
2022/07/09 00:23:04;;;;;;;;;4.25;4.25;;;;;22.77;46.66;102706.97;2415358;28;45258;-80
2022/07/09 00:24:14;;;;;;;;;3.75;3.75;;;;;22.76;47.08;102707.94;2412594;28;45522;-80
2022/07/09 00:25:25;;;;;;;;;4.25;4.25;;;;;22.74;46.56;102708.03;2402249;28;44767;-80
2022/07/09 00:26:35;;;;;;;;;5.75;4.25;;;;;22.74;46.82;102704.47;2400931;28;47064;-79
2022/07/09 00:27:46;;;;;;;;;4.25;4.25;;;;;22.73;46.16;102705.41;2415256;28;45259;-79
2022/07/09 00:28:56;;;;;;;;;3.50;3.50;;;;;22.70;46.21;102699.28;2422667;28;45197;-79
2022/07/09 00:30:07;;;;;;;;;3.50;3.50;;;;;22.69;46.61;102700.19;2422715;28;45178;-79
2022/07/09 00:31:17;;;;;;;;;4.50;4.00;;;;;22.69;46.56;102700.19;2413704;28;45234;-79
2022/07/09 00:32:27;;;;;;;;;6.75;5.00;;;;;22.69;46.45;102697.53;2415780;28;45258;-79
2022/07/09 00:33:38;;;;;;;;;5.75;4.00;;;;;22.68;46.40;102701.13;2412870;28;46174;-79
2022/07/09 00:34:48;;;;;;;;;5.50;4.00;;;;;22.68;46.60;102687.75;2412037;28;45190;-79
2022/07/09 00:35:58;;;;;;;;;5.00;4.00;;;;;22.69;46.38;102689.47;2415588;28;45220;-79
2022/07/09 00:37:09;;;;;;;;;4.50;3.00;;;;;22.71;46.31;102694.78;2422822;28;45234;-80
2022/07/09 00:38:19;;;;;;;;;4.00;4.00;;;;;22.71;46.64;102689.41;2412038;28;47233;-79
2022/07/09 00:39:29;;;;;;;;;3.25;2.00;;;;;22.72;46.88;102690.28;2415190;28;45400;-80
2022/07/09 00:40:40;;;;;;;;;4.00;4.00;;;;;22.72;46.40;102692.97;2420594;28;46304;-80
2022/07/09 00:41:50;;;;;;;;;4.00;4.00;;;;;22.70;46.71;102696.59;2402916;28;44750;-80
2022/07/09 00:43:00;;;;;;;;;4.75;4.75;;;;;22.70;47.07;102687.69;2406247;28;45447;-80
2022/07/09 00:44:11;;;;;;;;;6.25;4.75;;;;;22.69;46.36;102692.16;2412690;28;45475;-80
2022/07/09 00:45:21;;;;;;;;;4.00;4.00;;;;;22.68;46.69;102685.06;2412994;28;45399;-80
2022/07/09 00:46:31;;;;;;;;;5.25;4.75;;;;;22.70;46.29;102685.00;2422592;28;44772;-80
2022/07/09 00:47:42;;;;;;;;;6.00;4.25;;;;;22.68;47.32;102689.53;2412064;28;48010;-80
2022/07/09 00:48:52;;;;;;;;;7.00;5.00;;;;;22.69;46.70;102688.63;2405309;28;44747;-80
2022/07/09 00:50:04;;;;;;;;;4.00;4.00;;;;;22.70;46.60;102691.22;2415094;28;46192;-80
2022/07/09 00:51:17;;;;;;;;;5.75;4.00;;;;;22.68;46.73;102689.53;2410360;28;45249;-80
2022/07/09 00:52:30;;;;;;;;;7.00;7.00;;;;;22.66;46.49;102686.97;2405194;28;46340;-80
2022/07/09 00:53:41;;;;;;;;;5.00;4.00;;;;;22.66;46.52;102688.75;2422288;28;45158;-80
2022/07/09 00:54:54;;;;;;;;;4.00;4.00;;;;;22.65;47.39;102685.22;2412467;28;45336;-80
2022/07/09 00:56:05;;;;;;;;;5.00;4.00;;;;;22.65;47.11;102689.69;2418692;28;45201;-80
2022/07/09 00:57:16;;;;;;;;;5.25;5.25;;;;;22.65;46.92;102690.56;2422162;28;46170;-80
2022/07/09 00:58:27;;;;;;;;;4.75;4.75;;;;;22.65;46.59;102687.91;2422513;28;45234;-80
2022/07/09 00:59:39;;;;;;;;;3.50;3.50;;;;;22.64;47.23;102688.88;2421492;28;48353;-80
2022/07/09 01:00:49;;;;;;;;;3.25;3.00;;;;;22.64;47.00;102688.88;2422034;28;45341;-79
2022/07/09 01:02:01;;;;;;;;;6.00;5.50;;;;;22.65;46.75;102689.69;2422370;28;46527;-79
2022/07/09 01:03:11;;;;;;;;;9.25;6.00;;;;;22.64;47.47;102682.63;2414917;28;45209;-80
2022/07/09 01:04:22;;;;;;;;;6.00;6.00;;;;;22.64;47.19;102685.31;2415130;28;46232;-80
2022/07/09 01:05:35;;;;;;;;;5.25;5.25;;;;;22.64;47.40;102688.88;2422499;28;45449;-80
2022/07/09 01:06:45;;;;;;;;;5.25;4.75;;;;;22.64;47.37;102680.81;2412073;28;46210;-80
2022/07/09 01:07:56;;;;;;;;;5.00;5.00;;;;;22.65;47.25;102681.66;2405170;28;45254;-80
2022/07/09 01:09:07;;;;;;;;;7.00;6.00;;;;;22.64;47.24;102686.19;2414778;28;45589;-80
2022/07/09 01:10:17;;;;;;;;;9.25;6.75;;;;;22.63;47.48;102687.13;2422349;28;44650;-79
2022/07/09 01:11:28;;;;;;;;;5.00;5.00;;;;;22.64;47.62;102688.88;2422375;28;45392;-80
2022/07/09 01:12:38;;;;;;;;;6.00;5.00;;;;;22.65;47.79;102685.22;2419439;28;45197;-79
2022/07/09 01:13:50;;;;;;;;;6.75;6.00;;;;;22.63;47.81;102680.88;2419694;28;45482;-80
2022/07/09 01:15:01;;;;;;;;;5.00;4.50;;;;;22.61;47.64;102683.66;2403176;28;45234;-80
2022/07/09 01:16:14;;;;;;;;;6.50;6.50;;;;;22.59;47.21;102682.88;2415845;28;45410;-81
2022/07/09 01:17:25;;;;;;;;;6.00;6.00;;;;;22.57;47.76;102677.59;2420302;28;45241;-81
2022/07/09 01:18:35;;;;;;;;;5.00;5.00;;;;;22.56;47.53;102675.88;2420859;28;48069;-81
2022/07/09 01:19:45;;;;;;;;;6.25;5.25;;;;;22.56;48.07;102672.31;2421468;28;45237;-81
2022/07/09 01:20:56;;;;;;;;;5.75;5.25;;;;;22.54;48.24;102677.78;2413295;28;45993;-81
2022/07/09 01:22:07;;;;;;;;;8.50;6.50;;;;;22.53;48.16;102670.66;2411847;28;45404;-81
2022/07/09 01:23:18;;;;;;;;;6.00;6.00;;;;;22.51;48.07;102667.22;2401780;28;46196;-81
2022/07/09 01:24:28;;;;;;;;;8.25;6.00;;;;;22.49;47.48;102664.59;2402538;28;45312;-81
2022/07/09 01:25:41;;;;;;;;;6.25;6.25;;;;;22.48;47.68;102668.25;2401840;28;46234;-81
2022/07/09 01:26:53;;;;;;;;;6.00;6.00;;;;;22.45;47.66;102675.56;2410234;28;44737;-81
2022/07/09 01:28:06;;;;;;;;;5.00;4.00;;;;;22.41;47.96;102660.59;2413027;28;47305;-81
2022/07/09 01:29:16;;;;;;;;;7.00;7.00;;;;;22.39;47.72;102663.38;2412354;28;45176;-81
2022/07/09 01:30:27;;;;;;;;;7.75;5.50;;;;;22.38;47.79;102672.34;2402147;28;47370;-80
2022/07/09 01:31:38;;;;;;;;;8.50;6.25;;;;;22.35;47.68;102673.38;2408560;28;45266;-81
2022/07/09 01:32:48;;;;;;;;;5.25;5.25;;;;;22.35;48.27;102672.50;2422138;28;46151;-81
2022/07/09 01:33:58;;;;;;;;;5.00;5.00;;;;;22.34;48.44;102674.34;2410240;28;44667;-81
2022/07/09 01:35:09;;;;;;;;;5.75;4.00;;;;;22.34;48.48;102665.44;2405161;28;46373;-81
2022/07/09 01:36:19;;;;;;;;;4.00;4.00;;;;;22.35;47.98;102661.78;2419689;28;44569;-81
2022/07/09 01:37:30;;;;;;;;;7.00;7.00;;;;;22.35;47.96;102672.50;2418144;28;48079;-81
2022/07/09 01:38:41;;;;;;;;;6.25;6.25;;;;;22.35;47.91;102668.03;2412482;28;45376;-81
2022/07/09 01:39:51;;;;;;;;;8.50;7.00;;;;;22.35;48.19;102659.97;2413010;28;46241;-81
2022/07/09 01:41:02;;;;;;;;;6.25;6.25;;;;;22.36;48.04;102664.41;2411254;28;45355;-81
2022/07/09 01:42:12;;;;;;;;;5.75;5.25;;;;;22.37;48.64;102662.59;2402080;28;48414;-81
2022/07/09 01:43:22;;;;;;;;;7.75;5.75;;;;;22.36;47.91;102663.53;2405021;28;45323;-81
2022/07/09 01:44:33;;;;;;;;;4.50;4.50;;;;;22.37;48.35;102665.28;2419453;28;46221;-81
2022/07/09 01:45:43;;;;;;;;;7.50;7.00;;;;;22.36;48.27;102663.53;2422105;28;45299;-81
2022/07/09 01:46:54;;;;;;;;;5.50;5.50;;;;;22.35;48.56;102657.31;2421994;28;45416;-81
2022/07/09 01:48:04;;;;;;;;;6.25;6.25;;;;;22.35;48.58;102661.78;2422301;28;45301;-81
2022/07/09 01:49:15;;;;;;;;;9.00;6.25;;;;;22.35;48.79;102657.31;2406528;28;46343;-81
2022/07/09 01:50:25;;;;;;;;;7.50;5.50;;;;;22.35;48.79;102659.13;2404753;28;45266;-79
2022/07/09 01:51:35;;;;;;;;;5.50;5.50;;;;;22.33;48.67;102663.69;2411358;28;48024;-80
2022/07/09 01:52:46;;;;;;;;;7.00;6.25;;;;;22.32;48.40;102661.97;2419524;28;45285;-80
2022/07/09 01:53:57;;;;;;;;;8.50;7.50;;;;;22.28;48.82;102666.63;2419902;28;45840;-79
2022/07/09 01:55:07;;;;;;;;;6.25;6.25;;;;;22.28;48.53;102663.06;2412417;28;45265;-79
2022/07/09 01:56:18;;;;;;;;;9.00;7.25;;;;;22.25;48.82;102664.09;2411464;28;47024;-79
2022/07/09 01:57:28;;;;;;;;;9.00;7.00;;;;;22.26;48.88;102663.16;2411902;28;45491;-79
2022/07/09 01:58:38;;;;;;;;;7.00;7.00;;;;;22.25;48.88;102662.28;2412417;28;45730;-79
2022/07/09 01:59:49;;;;;;;;;6.00;6.00;;;;;22.25;48.22;102661.41;2412058;28;45436;-80
2022/07/09 02:00:59;;;;;;;;;5.50;5.25;;;;;22.26;48.69;102661.34;2417611;28;46259;-80
2022/07/09 02:02:09;;;;;;;;;8.00;8.00;;;;;22.26;48.96;102657.81;2422016;28;44687;-80
2022/07/09 02:03:20;;;;;;;;;6.25;6.25;;;;;22.25;48.85;102656.94;2411612;28;46087;-80
2022/07/09 02:04:31;;;;;;;;;7.00;5.25;;;;;22.24;49.04;102652.53;2412377;28;45467;-80
2022/07/09 02:05:41;;;;;;;;;8.00;6.00;;;;;22.23;49.14;102650.78;2421883;28;45414;-79
2022/07/09 02:06:52;;;;;;;;;6.25;6.25;;;;;22.23;49.27;102648.13;2411655;28;45246;-79
2022/07/09 02:08:02;;;;;;;;;8.00;8.00;;;;;22.21;48.95;102647.34;2414446;28;46378;-79
2022/07/09 02:09:13;;;;;;;;;8.00;7.00;;;;;22.21;48.95;102644.66;2407163;28;45437;-79
2022/07/09 02:10:23;;;;;;;;;8.00;6.50;;;;;22.22;49.08;102653.56;2404272;28;48161;-79
2022/07/09 02:11:33;;;;;;;;;6.75;6.75;;;;;22.19;49.68;102646.56;2416882;28;44750;-79
2022/07/09 02:12:43;;;;;;;;;6.00;6.00;;;;;22.17;49.16;102648.44;2415075;28;45363;-79
2022/07/09 02:13:54;;;;;;;;;5.50;5.25;;;;;22.16;49.76;102652.06;2413324;28;45308;-79
2022/07/09 02:15:05;;;;;;;;;5.75;5.75;;;;;22.13;49.72;102642.38;2412711;28;47154;-80
2022/07/09 02:16:16;;;;;;;;;7.25;7.25;;;;;22.12;49.92;102645.16;2415949;28;45266;-80
2022/07/09 02:17:26;;;;;;;;;6.50;6.00;;;;;22.09;50.07;102642.63;2421641;28;46462;-80
2022/07/09 02:18:36;;;;;;;;;9.50;8.00;;;;;22.07;49.70;102637.34;2421995;28;45250;-80
2022/07/09 02:19:47;;;;;;;;;6.00;6.00;;;;;22.06;49.72;102642.78;2413169;28;46224;-79
2022/07/09 02:20:57;;;;;;;;;6.50;6.50;;;;;22.03;49.69;102639.31;2416791;28;44598;-79
2022/07/09 02:22:07;;;;;;;;;8.00;8.00;;;;;22.00;49.75;102644.81;2411428;28;46363;-79
2022/07/09 02:23:18;;;;;;;;;7.00;7.00;;;;;21.99;49.56;102637.75;2414573;28;45178;-79
2022/07/09 02:24:28;;;;;;;;;8.00;6.50;;;;;21.96;50.53;102637.91;2415791;28;45213;-79
2022/07/09 02:25:38;;;;;;;;;7.00;7.00;;;;;21.95;50.12;102636.19;2411457;28;45290;-79
2022/07/09 02:26:49;;;;;;;;;7.00;5.00;;;;;21.93;49.73;102635.38;2410874;28;45255;-79
2022/07/09 02:27:59;;;;;;;;;7.00;6.25;;;;;21.91;50.30;102635.47;2412359;28;45214;-79
2022/07/09 02:29:09;;;;;;;;;6.00;6.00;;;;;21.89;50.20;102631.13;2411725;28;46229;-78
2022/07/09 02:30:20;;;;;;;;;7.00;6.25;;;;;21.87;50.47;102636.56;2402186;28;45227;-78
2022/07/09 02:31:30;;;;;;;;;8.00;8.00;;;;;21.85;50.64;102629.53;2413566;28;46267;-78
2022/07/09 02:32:41;;;;;;;;;9.00;7.50;;;;;21.82;50.52;102625.22;2411433;28;45249;-78
2022/07/09 02:33:52;;;;;;;;;7.50;7.25;;;;;21.79;50.73;102620.00;2413868;28;46202;-78
2022/07/09 02:35:03;;;;;;;;;7.25;6.75;;;;;21.77;50.82;102632.59;2412364;28;45426;-78
2022/07/09 02:36:13;;;;;;;;;10.00;6.75;;;;;21.76;50.70;102622.81;2410791;28;46857;-79
2022/07/09 02:37:23;;;;;;;;;6.50;5.25;;;;;21.73;50.83;102631.88;2411243;28;45323;-79
2022/07/09 02:38:34;;;;;;;;;6.75;6.75;;;;;21.71;50.94;102628.41;2411486;28;48159;-79
2022/07/09 02:39:44;;;;;;;;;8.50;7.50;;;;;21.68;51.02;102624.09;2418858;28;45316;-79
2022/07/09 02:40:54;;;;;;;;;8.00;7.50;;;;;21.66;50.95;102623.31;2421427;28;46532;-79
2022/07/09 02:42:05;;;;;;;;;7.50;6.00;;;;;21.64;51.30;102618.97;2421758;28;45229;-79
2022/07/09 02:43:15;;;;;;;;;9.00;7.00;;;;;21.62;51.06;102620.88;2413655;28;45223;-79
2022/07/09 02:44:26;;;;;;;;;5.50;5.50;;;;;21.60;51.22;102620.94;2416221;28;45223;-79
2022/07/09 02:45:36;;;;;;;;;9.50;7.75;;;;;21.56;51.05;102620.22;2421605;28;45222;-79
2022/07/09 02:46:46;;;;;;;;;7.25;6.25;;;;;21.55;51.52;102617.63;2421102;28;45281;-79
2022/07/09 02:47:57;;;;;;;;;7.00;7.00;;;;;21.53;51.16;102617.69;2411935;28;46439;-79
2022/07/09 02:49:07;;;;;;;;;6.25;6.25;;;;;21.51;51.17;102624.94;2406708;28;45298;-79
2022/07/09 02:50:17;;;;;;;;;8.00;8.00;;;;;21.50;51.41;102617.00;2421651;28;46487;-79
2022/07/09 02:51:28;;;;;;;;;8.00;7.00;;;;;21.48;51.21;102620.59;2412581;28;45235;-79
2022/07/09 02:52:38;;;;;;;;;8.75;6.75;;;;;21.45;51.42;102619.91;2411524;28;46237;-79
2022/07/09 02:53:48;;;;;;;;;5.25;5.25;;;;;21.43;51.56;102620.00;2412189;28;44580;-80
2022/07/09 02:54:59;;;;;;;;;7.50;7.25;;;;;21.42;51.38;102620.06;2420339;28;45238;-80
2022/07/09 02:56:09;;;;;;;;;8.00;8.00;;;;;21.40;51.76;102624.63;2406202;28;45222;-80
2022/07/09 02:57:19;;;;;;;;;8.00;8.00;;;;;21.38;51.85;102619.34;2405443;28;45429;-80
2022/07/09 02:58:31;;;;;;;;;6.50;6.50;;;;;21.35;51.46;102622.19;2420757;28;45391;-79
2022/07/09 02:59:41;;;;;;;;;6.25;6.00;;;;;21.32;51.84;102622.31;2420999;28;45411;-80
2022/07/09 03:00:51;;;;;;;;;8.50;7.00;;;;;21.31;51.78;102625.94;2420939;28;45309;-80
2022/07/09 03:02:02;;;;;;;;;7.00;7.00;;;;;21.29;51.74;102625.13;2421071;28;45269;-80
2022/07/09 03:03:13;;;;;;;;;7.50;7.50;;;;;21.27;52.41;102622.53;2411364;28;45227;-80
2022/07/09 03:04:23;;;;;;;;;9.25;7.25;;;;;21.24;52.14;102626.22;2412810;28;45599;-80
2022/07/09 03:05:34;;;;;;;;;7.25;6.75;;;;;21.22;52.61;102625.44;2421733;28;45418;-80
2022/07/09 03:06:44;;;;;;;;;6.75;6.75;;;;;21.21;52.48;102628.22;2410288;28;47627;-80
2022/07/09 03:07:55;;;;;;;;;9.75;7.00;;;;;21.19;52.44;102624.72;2411403;28;45274;-80
2022/07/09 03:09:06;;;;;;;;;8.00;8.00;;;;;21.17;52.44;102624.81;2411178;28;46104;-80
2022/07/09 03:10:16;;;;;;;;;10.75;9.25;;;;;21.13;52.46;102624.09;2407885;28;45322;-80
2022/07/09 03:11:26;;;;;;;;;7.50;6.75;;;;;21.12;51.95;102625.03;2414845;28;45314;-81
2022/07/09 03:12:37;;;;;;;;;9.00;8.25;;;;;21.10;52.31;102616.22;2421710;28;45190;-81
2022/07/09 03:13:47;;;;;;;;;8.25;7.25;;;;;21.10;52.89;102618.91;2411031;28;46093;-79
2022/07/09 03:14:57;;;;;;;;;8.00;7.00;;;;;21.08;52.57;102622.56;2414052;28;45340;-80
2022/07/09 03:16:08;;;;;;;;;9.00;9.00;;;;;21.07;52.96;102623.50;2406533;28;47168;-80
2022/07/09 03:17:18;;;;;;;;;8.25;8.25;;;;;21.06;52.90;102630.69;2405223;28;45227;-80
2022/07/09 03:18:29;;;;;;;;;8.25;7.75;;;;;21.02;52.71;102621.94;2421522;28;46362;-81
2022/07/09 03:19:39;;;;;;;;;8.75;8.75;;;;;21.00;52.92;102626.50;2421159;28;44651;-80
2022/07/09 03:20:50;;;;;;;;;11.25;9.50;;;;;20.99;53.01;102622.03;2411158;28;45578;-79
2022/07/09 03:22:01;;;;;;;;;9.00;8.25;;;;;20.99;53.35;102626.53;2419015;28;45230;-79
2022/07/09 03:23:13;;;;;;;;;7.00;7.00;;;;;20.98;53.25;102628.34;2421050;28;45527;-80
2022/07/09 03:24:23;;;;;;;;;9.75;8.00;;;;;20.96;53.14;102629.34;2421522;28;45317;-79
2022/07/09 03:25:33;;;;;;;;;8.50;7.50;;;;;20.95;53.28;102627.59;2421130;28;45449;-79
2022/07/09 03:26:44;;;;;;;;;8.00;6.00;;;;;20.92;53.29;102634.81;2401922;28;45463;-80
2022/07/09 03:27:54;;;;;;;;;7.00;7.00;;;;;20.92;53.32;102636.63;2409615;28;46510;-77
2022/07/09 03:29:05;;;;;;;;;9.75;9.25;;;;;20.90;52.92;102633.16;2411037;28;45237;-78
2022/07/09 03:30:15;;;;;;;;;1.00;1.00;;;;;20.87;53.51;102631.50;2404270;28;47455;-78
2022/07/09 06:24:05;;;;;;;;;10.75;10.00;;;;;21.54;51.34;102662.25;2665087;22;45955;-80
2022/07/09 06:25:15;;;;;;;;;10.50;10.50;;;;;21.55;51.72;102661.31;2402035;28;44853;-79
2022/07/09 06:26:26;;;;;;;;;10.00;10.00;;;;;21.57;51.44;102661.22;2405203;28;47709;-79
2022/07/09 06:27:36;;;;;;;;;9.75;9.75;;;;;21.57;51.79;102662.09;2402319;28;45297;-79
2022/07/09 06:28:47;;;;;;;;;12.75;12.75;;;;;21.61;51.61;102652.09;2407595;28;46304;-80
2022/07/09 06:29:57;;;;;;;;;11.25;10.50;;;;;21.64;51.60;102656.44;2403353;28;44770;-79
2022/07/09 06:31:07;;;;;;;;;8.25;8.25;;;;;21.68;51.48;102658.03;2409099;28;45340;-79
2022/07/09 06:32:18;;;;;;;;;12.50;11.00;;;;;21.72;51.34;102661.41;2399264;28;45356;-79
2022/07/09 06:33:28;;;;;;;;;10.50;10.50;;;;;21.75;51.47;102664.81;2404394;28;45395;-79
2022/07/09 06:34:38;;;;;;;;;13.50;11.00;;;;;21.79;51.28;102661.03;2401284;28;45282;-79
2022/07/09 06:35:49;;;;;;;;;9.75;9.75;;;;;21.85;51.15;102669.69;2404690;28;45281;-79
2022/07/09 06:36:59;;;;;;;;;11.75;10.00;;;;;21.88;51.09;102661.50;2412184;28;44711;-79
2022/07/09 06:38:09;;;;;;;;;13.00;11.75;;;;;21.91;51.33;102659.56;2412166;28;45363;-79
2022/07/09 06:40:49;;;;;;;;;16.00;11.50;;;;;21.99;51.24;102669.88;2404216;28;45862;-79
2022/07/09 06:42:04;;;;;;;;;9.50;9.25;;;;;22.01;51.07;102665.31;2412186;28;45387;-79
2022/07/09 06:43:14;;;;;;;;;12.25;12.00;;;;;22.02;51.18;102663.50;2411390;28;45301;-79
2022/07/09 06:44:25;;;;;;;;;11.25;11.25;;;;;22.02;51.08;102664.38;2401629;28;45262;-79
2022/07/09 06:45:36;;;;;;;;;10.00;10.00;;;;;22.05;50.56;102666.00;2407694;28;46356;-80
2022/07/09 06:46:46;;;;;;;;;11.25;9.00;;;;;22.03;50.38;102663.41;2405207;28;44684;-80
2022/07/09 06:47:56;;;;;;;;;11.25;11.25;;;;;22.06;50.62;102661.50;2412104;28;45359;-79
2022/07/09 06:49:07;;;;;;;;;11.50;11.50;;;;;22.06;50.97;102670.41;2399344;28;45391;-80
2022/07/09 06:50:17;;;;;;;;;14.25;11.50;;;;;22.10;50.87;102663.09;2394845;28;45557;-80
2022/07/09 06:51:27;;;;;;;;;9.75;9.75;;;;;22.12;50.72;102661.22;2406091;28;45321;-80
2022/07/09 06:52:38;;;;;;;;;10.00;10.00;;;;;22.16;50.95;102668.13;2412155;28;46399;-80
2022/07/09 06:53:48;;;;;;;;;12.25;11.25;;;;;22.19;50.57;102662.63;2409165;28;44679;-80
2022/07/09 06:54:58;;;;;;;;;11.25;11.00;;;;;22.21;50.21;102662.53;2408924;28;45299;-80
2022/07/09 06:56:09;;;;;;;;;14.50;11.50;;;;;22.23;50.42;102666.84;2412124;28;45331;-80
2022/07/09 06:57:19;;;;;;;;;10.50;10.50;;;;;22.23;50.34;102664.19;2401557;28;47176;-80
2022/07/09 06:58:29;;;;;;;;;9.00;7.00;;;;;22.25;50.51;102661.41;2401139;28;45357;-80
2022/07/09 06:59:40;;;;;;;;;10.00;9.25;;;;;22.26;49.92;102666.72;2412040;28;45375;-80
2022/07/09 07:00:50;;;;;;;;;11.00;11.00;;;;;22.29;50.15;102667.50;2411749;28;44730;-80
2022/07/09 07:02:00;;;;;;;;;11.25;10.75;;;;;22.29;50.52;102662.13;2401508;28;47084;-79
2022/07/09 07:03:11;;;;;;;;;13.50;11.25;;;;;22.30;50.52;102664.72;2396323;28;45428;-79
2022/07/09 07:04:21;;;;;;;;;12.00;11.00;;;;;22.33;50.58;102666.38;2402098;28;46216;-79
2022/07/09 07:05:31;;;;;;;;;9.00;8.50;;;;;22.36;49.77;102663.53;2392189;28;44711;-79
2022/07/09 07:06:42;;;;;;;;;11.50;11.50;;;;;22.36;49.85;102653.69;2398501;28;45469;-79
2022/07/09 07:07:52;;;;;;;;;12.00;10.25;;;;;22.39;50.38;102652.66;2408580;28;45151;-81
2022/07/09 07:09:03;;;;;;;;;10.50;10.50;;;;;22.43;49.95;102648.00;2402302;28;45293;-81
2022/07/09 07:10:13;;;;;;;;;10.25;10.25;;;;;22.47;50.06;102657.63;2401469;28;44666;-81
2022/07/09 07:11:23;;;;;;;;;6.75;6.75;;;;;22.49;49.93;102655.72;2404580;28;45211;-81
2022/07/09 07:12:34;;;;;;;;;11.75;9.25;;;;;22.52;49.81;102657.38;2411810;28;45289;-80
2022/07/09 07:13:44;;;;;;;;;10.75;9.00;;;;;22.56;49.36;102653.56;2413438;28;45340;-81
2022/07/09 07:14:55;;;;;;;;;11.00;11.00;;;;;22.57;49.76;102653.47;2404016;28;45143;-83
2022/07/09 07:16:06;;;;;;;;;12.00;9.25;;;;;22.62;49.72;102657.75;2407881;28;45493;-81
2022/07/09 07:17:17;;;;;;;;;10.00;10.00;;;;;22.64;49.73;102650.47;2404297;28;45247;-83
2022/07/09 07:18:27;;;;;;;;;9.50;8.75;;;;;22.66;49.34;102653.94;2410919;28;48121;-83
2022/07/09 07:19:37;;;;;;;;;11.25;9.50;;;;;22.66;49.54;102649.44;2403425;28;45265;-83
2022/07/09 07:20:48;;;;;;;;;8.00;7.00;;;;;22.68;49.33;102654.72;2396262;28;48005;-83
2022/07/09 07:21:58;;;;;;;;;11.50;11.50;;;;;22.69;49.33;102653.81;2406051;28;44734;-81
2022/07/09 07:23:08;;;;;;;;;11.00;10.00;;;;;22.72;49.26;102652.78;2412475;28;46464;-82
2022/07/09 07:24:19;;;;;;;;;8.75;8.50;;;;;22.72;49.29;102655.44;2408361;28;45236;-82
2022/07/09 07:25:29;;;;;;;;;11.00;9.25;;;;;22.75;49.24;102660.63;2394554;28;47097;-81
2022/07/09 07:26:39;;;;;;;;;10.50;9.50;;;;;22.76;49.22;102657.00;2399791;28;44771;-81
2022/07/09 07:27:50;;;;;;;;;9.00;9.00;;;;;22.76;48.91;102657.00;2405894;28;45289;-81
2022/07/09 07:29:01;;;;;;;;;7.75;7.25;;;;;22.76;49.46;102648.97;2403310;28;45275;-81
2022/07/09 07:30:11;;;;;;;;;7.00;6.75;;;;;22.77;48.71;102651.53;2409753;28;46274;-81
2022/07/09 07:31:23;;;;;;;;;11.50;9.25;;;;;22.80;48.90;102656.75;2412133;28;45452;-82
2022/07/09 07:32:33;;;;;;;;;7.50;6.75;;;;;22.80;48.81;102658.56;2401881;28;48556;-82
2022/07/09 07:33:43;;;;;;;;;7.75;6.75;;;;;22.80;48.98;102658.56;2400351;28;45369;-81
2022/07/09 07:34:54;;;;;;;;;10.75;10.00;;;;;22.80;48.65;102656.75;2387348;28;45347;-80
2022/07/09 07:36:05;;;;;;;;;8.25;8.25;;;;;22.82;48.55;102659.34;2408515;28;44803;-82
2022/07/09 07:37:15;;;;;;;;;9.00;9.00;;;;;22.85;48.92;102652.94;2402685;28;48303;-82
2022/07/09 07:38:27;;;;;;;;;7.75;7.75;;;;;22.88;49.02;102664.38;2406066;28;45452;-82
2022/07/09 07:39:37;;;;;;;;;8.25;8.25;;;;;22.90;48.92;102651.75;2395320;28;47477;-83
2022/07/09 07:40:48;;;;;;;;;10.75;10.75;;;;;22.95;49.32;102653.28;2400326;28;44878;-82
2022/07/09 07:41:58;;;;;;;;;10.75;9.00;;;;;23.00;48.52;102656.59;2403066;28;46229;-82
2022/07/09 07:43:12;;;;;;;;;12.00;11.00;;;;;23.01;48.28;102661.88;2406033;28;45451;-82
2022/07/09 07:44:22;;;;;;;;;9.75;9.75;;;;;23.03;48.44;102656.41;2395212;28;47900;-82
2022/07/09 07:45:33;;;;;;;;;10.00;9.00;;;;;23.03;48.68;102654.59;2398824;28;45289;-82
2022/07/09 07:46:43;;;;;;;;;10.25;8.25;;;;;23.07;48.25;102655.28;2413440;28;45346;-81
2022/07/09 07:47:54;;;;;;;;;9.00;7.50;;;;;23.11;48.52;102658.69;2413160;28;45645;-82
2022/07/09 07:49:04;;;;;;;;;9.75;9.25;;;;;23.15;48.44;102661.09;2403063;28;47437;-82
2022/07/09 07:50:15;;;;;;;;;10.00;9.75;;;;;23.16;48.29;102654.75;2406127;28;44670;-80
2022/07/09 07:51:25;;;;;;;;;5.00;5.00;;;;;23.20;47.71;102659.97;2411111;28;45408;-80
2022/07/09 07:52:35;;;;;;;;;8.00;6.75;;;;;23.24;47.95;102662.38;2412867;28;45250;-80
2022/07/09 07:53:46;;;;;;;;;6.25;6.25;;;;;23.26;47.73;102656.94;2410362;28;45323;-80
2022/07/09 07:54:56;;;;;;;;;8.00;8.00;;;;;23.29;47.47;102654.06;2402783;28;45451;-80
2022/07/09 07:56:07;;;;;;;;;9.75;8.00;;;;;23.32;48.13;102658.38;2396470;28;47336;-80
2022/07/09 07:57:17;;;;;;;;;8.00;7.25;;;;;23.34;48.04;102654.66;2406104;28;45497;-80
2022/07/09 07:58:28;;;;;;;;;8.00;7.00;;;;;23.36;47.43;102658.13;2407413;28;46304;-80
2022/07/09 07:59:38;;;;;;;;;7.50;7.00;;;;;23.39;47.56;102662.44;2394996;28;45413;-80
2022/07/09 08:00:48;;;;;;;;;8.00;8.00;;;;;23.41;47.54;102657.84;2395690;28;48197;-80
2022/07/09 08:01:59;;;;;;;;;8.00;8.00;;;;;23.43;47.58;102655.97;2402671;28;45479;-80
2022/07/09 08:03:09;;;;;;;;;7.25;7.00;;;;;23.46;47.08;102660.25;2403381;28;45399;-81
2022/07/09 08:04:19;;;;;;;;;7.75;6.00;;;;;23.49;47.29;102661.00;2402275;28;45468;-79
2022/07/09 08:05:30;;;;;;;;;8.00;6.50;;;;;23.52;47.50;102649.22;2400309;28;46083;-80
2022/07/09 08:06:40;;;;;;;;;6.75;6.75;;;;;23.55;47.11;102649.03;2401823;28;45396;-80
2022/07/09 08:07:51;;;;;;;;;7.50;7.50;;;;;23.58;47.14;102654.22;2400450;28;46333;-80
2022/07/09 08:09:02;;;;;;;;;5.25;4.00;;;;;23.62;47.13;102654.91;2403245;28;44719;-80
2022/07/09 08:10:13;;;;;;;;;8.00;7.25;;;;;23.65;46.89;102651.19;2403234;28;46494;-81
2022/07/09 08:11:23;;;;;;;;;6.50;5.50;;;;;23.67;46.73;102651.97;2409681;28;45221;-79
2022/07/09 08:12:33;;;;;;;;;7.50;6.50;;;;;23.66;46.65;102648.41;2407214;28;45356;-78
2022/07/09 08:13:44;;;;;;;;;7.00;7.00;;;;;23.69;46.70;102653.59;2392386;28;45163;-79
2022/07/09 08:14:55;;;;;;;;;6.75;5.25;;;;;23.71;46.41;102648.13;2396308;28;46369;-79
2022/07/09 08:16:06;;;;;;;;;6.75;6.00;;;;;23.74;46.42;102652.44;2403970;28;45233;-79
2022/07/09 08:17:16;;;;;;;;;7.75;7.75;;;;;23.76;46.42;102653.22;2401451;28;45313;-78
2022/07/09 08:18:27;;;;;;;;;7.50;7.50;;;;;23.80;46.50;102652.09;2403354;28;45381;-78
2022/07/09 08:19:37;;;;;;;;;6.00;6.00;;;;;23.81;46.58;102648.44;2405168;28;45267;-79
2022/07/09 08:20:49;;;;;;;;;7.50;6.50;;;;;23.83;46.47;102650.06;2406914;28;44808;-79